DK-0023 weather

Grønbæk Flyveplads
Central Jutland, Denmark

Public forecast

Using degrees Celsius for public forecast. Weather courtesy of forecast.io.

Closest aviation weather report (METAR) to Grønbæk Flyveplads

Closest report is Karup Airport, 16.7 nm (30.9 km) W. Retrieved 2020/04/04 02:20 UTC (3 minutes ago):

EKKA 040220Z AUTO 21003KT 9999 NCD M01/M02 Q1017

Closest aviation forecast (TAF) to Grønbæk Flyveplads

Closest forecast is Karup Airport, 16.7 nm (30.9 km) W. Retrieved 2020-04-04 03:31 UTC (0 seconds ago):

TAF EKKA 040217Z 0403/0503 23005KT 9999 SCT030 BECMG 0406/0409 22012KT TEMPO 0409/0416 7000 -SHRA BKN010 SCT020CB BECMG 0420/0423 18006KT